sensor_id;sensor_type;location;lat;lon;timestamp;P1;durP1;ratioP1;P2;durP2;ratioP2
18681;SDS011;9471;51.168;4.154;2022-07-19T00:00:02;11.27;;;3.22;;
18681;SDS011;9471;51.168;4.154;2022-07-19T00:02:32;6.30;;;3.00;;
18681;SDS011;9471;51.168;4.154;2022-07-19T00:05:00;11.48;;;3.22;;
18681;SDS011;9471;51.168;4.154;2022-07-19T00:07:27;7.78;;;2.78;;
18681;SDS011;9471;51.168;4.154;2022-07-19T00:09:54;9.98;;;3.33;;
18681;SDS011;9471;51.168;4.154;2022-07-19T00:12:22;7.72;;;3.03;;
18681;SDS011;9471;51.168;4.154;2022-07-19T00:14:49;17.40;;;3.58;;
18681;SDS011;9471;51.168;4.154;2022-07-19T00:17:18;11.57;;;3.58;;
18681;SDS011;9471;51.168;4.154;2022-07-19T00:19:45;8.55;;;3.33;;
18681;SDS011;9471;51.168;4.154;2022-07-19T00:22:12;8.13;;;3.50;;
18681;SDS011;9471;51.168;4.154;2022-07-19T00:24:40;13.13;;;3.33;;
18681;SDS011;9471;51.168;4.154;2022-07-19T00:27:07;11.25;;;3.65;;
18681;SDS011;9471;51.168;4.154;2022-07-19T00:29:35;8.32;;;3.45;;
18681;SDS011;9471;51.168;4.154;2022-07-19T00:32:02;7.65;;;3.38;;
18681;SDS011;9471;51.168;4.154;2022-07-19T00:34:29;10.32;;;3.50;;
18681;SDS011;9471;51.168;4.154;2022-07-19T00:36:56;7.32;;;3.25;;
18681;SDS011;9471;51.168;4.154;2022-07-19T00:39:23;11.05;;;3.33;;
18681;SDS011;9471;51.168;4.154;2022-07-19T00:41:50;13.57;;;3.65;;
18681;SDS011;9471;51.168;4.154;2022-07-19T00:44:20;10.43;;;3.28;;
18681;SDS011;9471;51.168;4.154;2022-07-19T00:46:49;9.68;;;3.67;;
18681;SDS011;9471;51.168;4.154;2022-07-19T00:49:16;10.48;;;3.78;;
18681;SDS011;9471;51.168;4.154;2022-07-19T00:51:44;12.68;;;3.65;;
18681;SDS011;9471;51.168;4.154;2022-07-19T00:54:12;9.60;;;3.75;;
18681;SDS011;9471;51.168;4.154;2022-07-19T00:56:41;8.40;;;3.58;;
18681;SDS011;9471;51.168;4.154;2022-07-19T00:59:08;11.93;;;4.05;;
18681;SDS011;9471;51.168;4.154;2022-07-19T01:01:37;10.02;;;3.63;;
18681;SDS011;9471;51.168;4.154;2022-07-19T01:04:07;8.30;;;3.45;;
18681;SDS011;9471;51.168;4.154;2022-07-19T01:06:34;10.75;;;3.60;;
18681;SDS011;9471;51.168;4.154;2022-07-19T01:09:01;10.52;;;3.88;;
18681;SDS011;9471;51.168;4.154;2022-07-19T01:11:31;11.60;;;3.83;;
18681;SDS011;9471;51.168;4.154;2022-07-19T01:13:58;9.05;;;2.97;;
18681;SDS011;9471;51.168;4.154;2022-07-19T01:16:27;9.18;;;3.45;;
18681;SDS011;9471;51.168;4.154;2022-07-19T01:18:54;10.73;;;3.38;;
18681;SDS011;9471;51.168;4.154;2022-07-19T01:21:23;11.48;;;3.17;;
18681;SDS011;9471;51.168;4.154;2022-07-19T01:23:51;12.65;;;3.70;;
18681;SDS011;9471;51.168;4.154;2022-07-19T01:26:18;10.05;;;3.97;;
18681;SDS011;9471;51.168;4.154;2022-07-19T01:28:45;12.30;;;3.70;;
18681;SDS011;9471;51.168;4.154;2022-07-19T01:31:12;7.75;;;2.97;;
18681;SDS011;9471;51.168;4.154;2022-07-19T01:33:40;9.93;;;3.40;;
18681;SDS011;9471;51.168;4.154;2022-07-19T01:36:07;9.45;;;3.30;;
18681;SDS011;9471;51.168;4.154;2022-07-19T01:38:36;8.15;;;3.20;;
18681;SDS011;9471;51.168;4.154;2022-07-19T01:41:04;10.32;;;3.10;;
18681;SDS011;9471;51.168;4.154;2022-07-19T01:43:31;9.85;;;3.63;;
18681;SDS011;9471;51.168;4.154;2022-07-19T01:45:58;7.30;;;3.22;;
18681;SDS011;9471;51.168;4.154;2022-07-19T01:48:25;8.50;;;3.40;;
18681;SDS011;9471;51.168;4.154;2022-07-19T01:50:52;8.43;;;3.22;;
18681;SDS011;9471;51.168;4.154;2022-07-19T01:53:19;10.23;;;3.65;;
18681;SDS011;9471;51.168;4.154;2022-07-19T01:55:50;9.05;;;3.72;;
18681;SDS011;9471;51.168;4.154;2022-07-19T01:58:17;9.85;;;3.90;;
18681;SDS011;9471;51.168;4.154;2022-07-19T02:00:43;11.70;;;3.63;;
18681;SDS011;9471;51.168;4.154;2022-07-19T02:03:11;10.75;;;3.75;;
18681;SDS011;9471;51.168;4.154;2022-07-19T02:05:38;9.85;;;3.45;;
18681;SDS011;9471;51.168;4.154;2022-07-19T02:08:05;10.98;;;4.10;;
18681;SDS011;9471;51.168;4.154;2022-07-19T02:10:32;11.02;;;3.60;;
18681;SDS011;9471;51.168;4.154;2022-07-19T02:13:01;9.55;;;4.32;;
18681;SDS011;9471;51.168;4.154;2022-07-19T02:15:28;17.58;;;4.80;;
18681;SDS011;9471;51.168;4.154;2022-07-19T02:17:55;11.10;;;4.15;;
18681;SDS011;9471;51.168;4.154;2022-07-19T02:20:22;10.77;;;3.80;;
18681;SDS011;9471;51.168;4.154;2022-07-19T02:22:49;12.63;;;4.38;;
18681;SDS011;9471;51.168;4.154;2022-07-19T02:25:16;13.48;;;4.53;;
18681;SDS011;9471;51.168;4.154;2022-07-19T02:27:43;10.73;;;4.25;;
18681;SDS011;9471;51.168;4.154;2022-07-19T02:30:12;10.88;;;4.43;;
18681;SDS011;9471;51.168;4.154;2022-07-19T02:32:41;15.00;;;4.60;;
18681;SDS011;9471;51.168;4.154;2022-07-19T02:35:08;11.55;;;4.57;;
18681;SDS011;9471;51.168;4.154;2022-07-19T02:37:36;8.77;;;4.05;;
18681;SDS011;9471;51.168;4.154;2022-07-19T02:40:03;9.68;;;4.35;;
18681;SDS011;9471;51.168;4.154;2022-07-19T02:42:31;12.48;;;3.97;;
18681;SDS011;9471;51.168;4.154;2022-07-19T02:44:58;10.82;;;4.30;;
18681;SDS011;9471;51.168;4.154;2022-07-19T02:47:26;11.63;;;4.32;;
18681;SDS011;9471;51.168;4.154;2022-07-19T02:49:53;13.38;;;4.57;;
18681;SDS011;9471;51.168;4.154;2022-07-19T02:52:20;9.32;;;4.20;;
18681;SDS011;9471;51.168;4.154;2022-07-19T02:54:47;10.20;;;4.20;;
18681;SDS011;9471;51.168;4.154;2022-07-19T02:57:14;12.38;;;4.38;;
18681;SDS011;9471;51.168;4.154;2022-07-19T02:59:41;12.13;;;4.20;;
18681;SDS011;9471;51.168;4.154;2022-07-19T03:02:08;14.60;;;5.05;;
18681;SDS011;9471;51.168;4.154;2022-07-19T03:04:39;10.48;;;4.40;;
18681;SDS011;9471;51.168;4.154;2022-07-19T03:07:05;10.68;;;4.63;;
18681;SDS011;9471;51.168;4.154;2022-07-19T03:09:32;12.02;;;4.40;;
18681;SDS011;9471;51.168;4.154;2022-07-19T03:11:59;9.70;;;4.45;;
18681;SDS011;9471;51.168;4.154;2022-07-19T03:14:26;16.85;;;4.38;;
18681;SDS011;9471;51.168;4.154;2022-07-19T03:16:54;10.02;;;4.63;;
18681;SDS011;9471;51.168;4.154;2022-07-19T03:19:21;11.25;;;3.95;;
18681;SDS011;9471;51.168;4.154;2022-07-19T03:21:51;11.52;;;4.30;;
18681;SDS011;9471;51.168;4.154;2022-07-19T03:24:18;10.23;;;4.47;;
18681;SDS011;9471;51.168;4.154;2022-07-19T03:26:45;12.85;;;4.60;;
18681;SDS011;9471;51.168;4.154;2022-07-19T03:29:12;10.23;;;4.43;;
18681;SDS011;9471;51.168;4.154;2022-07-19T03:31:39;13.45;;;4.18;;
18681;SDS011;9471;51.168;4.154;2022-07-19T03:34:06;10.90;;;4.25;;
18681;SDS011;9471;51.168;4.154;2022-07-19T03:36:33;11.02;;;4.20;;
18681;SDS011;9471;51.168;4.154;2022-07-19T03:39:01;12.45;;;4.70;;
18681;SDS011;9471;51.168;4.154;2022-07-19T03:41:28;12.50;;;4.78;;
18681;SDS011;9471;51.168;4.154;2022-07-19T03:43:55;12.23;;;4.32;;
18681;SDS011;9471;51.168;4.154;2022-07-19T03:46:22;13.30;;;4.60;;
18681;SDS011;9471;51.168;4.154;2022-07-19T03:48:49;11.38;;;4.18;;
18681;SDS011;9471;51.168;4.154;2022-07-19T03:51:16;13.20;;;3.78;;
18681;SDS011;9471;51.168;4.154;2022-07-19T03:53:43;13.45;;;4.28;;
18681;SDS011;9471;51.168;4.154;2022-07-19T03:56:13;13.07;;;4.15;;
18681;SDS011;9471;51.168;4.154;2022-07-19T03:58:40;12.68;;;4.22;;
18681;SDS011;9471;51.168;4.154;2022-07-19T04:01:07;8.68;;;3.90;;
18681;SDS011;9471;51.168;4.154;2022-07-19T04:03:35;11.40;;;4.07;;
18681;SDS011;9471;51.168;4.154;2022-07-19T04:06:03;9.98;;;3.75;;
18681;SDS011;9471;51.168;4.154;2022-07-19T04:08:31;10.40;;;4.05;;
18681;SDS011;9471;51.168;4.154;2022-07-19T04:10:58;11.60;;;3.63;;
18681;SDS011;9471;51.168;4.154;2022-07-19T04:13:26;12.18;;;3.97;;
18681;SDS011;9471;51.168;4.154;2022-07-19T04:15:54;12.50;;;4.03;;
18681;SDS011;9471;51.168;4.154;2022-07-19T04:18:23;9.82;;;3.58;;
18681;SDS011;9471;51.168;4.154;2022-07-19T04:20:50;10.23;;;3.65;;
18681;SDS011;9471;51.168;4.154;2022-07-19T04:23:17;10.50;;;3.78;;
18681;SDS011;9471;51.168;4.154;2022-07-19T04:25:44;11.32;;;3.53;;
18681;SDS011;9471;51.168;4.154;2022-07-19T04:28:11;11.93;;;3.42;;
18681;SDS011;9471;51.168;4.154;2022-07-19T04:30:39;9.05;;;3.60;;
18681;SDS011;9471;51.168;4.154;2022-07-19T04:33:06;11.98;;;4.28;;
18681;SDS011;9471;51.168;4.154;2022-07-19T04:35:33;12.25;;;3.80;;
18681;SDS011;9471;51.168;4.154;2022-07-19T04:38:00;13.00;;;4.32;;
18681;SDS011;9471;51.168;4.154;2022-07-19T04:40:27;8.73;;;4.50;;
18681;SDS011;9471;51.168;4.154;2022-07-19T04:42:54;9.05;;;4.40;;
18681;SDS011;9471;51.168;4.154;2022-07-19T04:45:21;12.90;;;4.18;;
18681;SDS011;9471;51.168;4.154;2022-07-19T04:47:50;15.02;;;5.22;;
18681;SDS011;9471;51.168;4.154;2022-07-19T04:50:17;12.95;;;4.05;;
18681;SDS011;9471;51.168;4.154;2022-07-19T04:52:44;11.02;;;3.90;;
18681;SDS011;9471;51.168;4.154;2022-07-19T04:55:11;10.13;;;3.80;;
18681;SDS011;9471;51.168;4.154;2022-07-19T04:57:38;12.52;;;4.00;;
18681;SDS011;9471;51.168;4.154;2022-07-19T05:00:07;12.00;;;4.07;;
18681;SDS011;9471;51.168;4.154;2022-07-19T05:02:36;16.17;;;4.38;;
18681;SDS011;9471;51.168;4.154;2022-07-19T05:05:05;9.23;;;4.03;;
18681;SDS011;9471;51.168;4.154;2022-07-19T05:07:32;13.70;;;4.80;;
18681;SDS011;9471;51.168;4.154;2022-07-19T05:10:02;17.92;;;5.22;;
18681;SDS011;9471;51.168;4.154;2022-07-19T05:12:29;15.90;;;4.93;;
18681;SDS011;9471;51.168;4.154;2022-07-19T05:14:56;15.18;;;5.30;;
18681;SDS011;9471;51.168;4.154;2022-07-19T05:17:24;13.85;;;5.07;;
18681;SDS011;9471;51.168;4.154;2022-07-19T05:19:51;11.43;;;5.10;;
18681;SDS011;9471;51.168;4.154;2022-07-19T05:22:19;13.68;;;4.57;;
18681;SDS011;9471;51.168;4.154;2022-07-19T05:24:47;14.63;;;4.50;;
18681;SDS011;9471;51.168;4.154;2022-07-19T05:27:14;13.25;;;4.65;;
18681;SDS011;9471;51.168;4.154;2022-07-19T05:29:42;13.20;;;3.78;;
18681;SDS011;9471;51.168;4.154;2022-07-19T05:32:09;10.55;;;3.90;;
18681;SDS011;9471;51.168;4.154;2022-07-19T05:34:36;12.15;;;4.15;;
18681;SDS011;9471;51.168;4.154;2022-07-19T05:37:03;13.65;;;4.85;;
18681;SDS011;9471;51.168;4.154;2022-07-19T05:39:32;12.13;;;4.00;;
18681;SDS011;9471;51.168;4.154;2022-07-19T05:41:59;8.88;;;4.32;;
18681;SDS011;9471;51.168;4.154;2022-07-19T05:44:25;13.32;;;4.10;;
18681;SDS011;9471;51.168;4.154;2022-07-19T05:46:52;12.38;;;4.18;;
18681;SDS011;9471;51.168;4.154;2022-07-19T05:49:19;18.13;;;4.85;;
18681;SDS011;9471;51.168;4.154;2022-07-19T05:51:46;13.60;;;4.28;;
18681;SDS011;9471;51.168;4.154;2022-07-19T05:54:13;12.32;;;4.50;;
18681;SDS011;9471;51.168;4.154;2022-07-19T05:56:43;15.30;;;4.53;;
18681;SDS011;9471;51.168;4.154;2022-07-19T05:59:10;13.02;;;4.68;;
18681;SDS011;9471;51.168;4.154;2022-07-19T06:01:37;13.02;;;4.47;;
18681;SDS011;9471;51.168;4.154;2022-07-19T06:04:04;12.65;;;5.13;;
18681;SDS011;9471;51.168;4.154;2022-07-19T06:06:32;13.88;;;4.65;;
18681;SDS011;9471;51.168;4.154;2022-07-19T06:09:00;13.82;;;4.40;;
18681;SDS011;9471;51.168;4.154;2022-07-19T06:11:28;12.45;;;4.68;;
18681;SDS011;9471;51.168;4.154;2022-07-19T06:13:56;14.00;;;4.55;;
18681;SDS011;9471;51.168;4.154;2022-07-19T06:16:23;10.50;;;4.15;;
18681;SDS011;9471;51.168;4.154;2022-07-19T06:18:51;14.07;;;4.95;;
18681;SDS011;9471;51.168;4.154;2022-07-19T06:21:18;16.17;;;4.65;;
18681;SDS011;9471;51.168;4.154;2022-07-19T06:23:46;16.60;;;4.70;;
18681;SDS011;9471;51.168;4.154;2022-07-19T06:26:14;21.98;;;4.28;;
18681;SDS011;9471;51.168;4.154;2022-07-19T06:28:42;17.90;;;4.78;;
18681;SDS011;9471;51.168;4.154;2022-07-19T06:31:11;16.00;;;4.72;;
18681;SDS011;9471;51.168;4.154;2022-07-19T06:33:39;13.38;;;4.13;;
18681;SDS011;9471;51.168;4.154;2022-07-19T06:36:06;15.93;;;4.18;;
18681;SDS011;9471;51.168;4.154;2022-07-19T06:38:33;11.07;;;3.97;;
18681;SDS011;9471;51.168;4.154;2022-07-19T06:41:01;15.85;;;4.00;;
18681;SDS011;9471;51.168;4.154;2022-07-19T06:43:28;12.90;;;4.38;;
18681;SDS011;9471;51.168;4.154;2022-07-19T06:45:55;14.60;;;4.07;;
18681;SDS011;9471;51.168;4.154;2022-07-19T06:48:23;13.93;;;3.67;;
18681;SDS011;9471;51.168;4.154;2022-07-19T06:50:50;9.48;;;3.40;;
18681;SDS011;9471;51.168;4.154;2022-07-19T06:53:17;15.68;;;3.75;;
18681;SDS011;9471;51.168;4.154;2022-07-19T06:55:45;18.75;;;4.05;;
18681;SDS011;9471;51.168;4.154;2022-07-19T06:58:12;13.50;;;3.65;;
18681;SDS011;9471;51.168;4.154;2022-07-19T07:00:39;13.25;;;3.15;;
18681;SDS011;9471;51.168;4.154;2022-07-19T07:03:06;8.52;;;2.90;;
18681;SDS011;9471;51.168;4.154;2022-07-19T07:05:35;11.52;;;3.17;;
18681;SDS011;9471;51.168;4.154;2022-07-19T07:08:02;9.07;;;3.38;;
18681;SDS011;9471;51.168;4.154;2022-07-19T07:10:29;12.35;;;2.90;;
18681;SDS011;9471;51.168;4.154;2022-07-19T07:12:56;15.15;;;2.90;;
18681;SDS011;9471;51.168;4.154;2022-07-19T07:15:23;11.93;;;3.22;;
18681;SDS011;9471;51.168;4.154;2022-07-19T07:17:50;12.13;;;3.55;;
18681;SDS011;9471;51.168;4.154;2022-07-19T07:20:17;14.65;;;3.45;;
18681;SDS011;9471;51.168;4.154;2022-07-19T07:22:46;12.43;;;2.95;;
18681;SDS011;9471;51.168;4.154;2022-07-19T07:25:13;9.43;;;2.90;;
18681;SDS011;9471;51.168;4.154;2022-07-19T07:27:39;11.50;;;2.78;;
18681;SDS011;9471;51.168;4.154;2022-07-19T07:30:07;10.77;;;2.67;;
18681;SDS011;9471;51.168;4.154;2022-07-19T07:32:35;8.38;;;2.25;;
18681;SDS011;9471;51.168;4.154;2022-07-19T07:35:02;8.00;;;2.90;;
18681;SDS011;9471;51.168;4.154;2022-07-19T07:37:30;9.82;;;3.10;;
18681;SDS011;9471;51.168;4.154;2022-07-19T07:39:58;9.20;;;2.78;;
18681;SDS011;9471;51.168;4.154;2022-07-19T07:42:25;8.88;;;2.72;;
18681;SDS011;9471;51.168;4.154;2022-07-19T07:44:52;8.75;;;3.13;;
18681;SDS011;9471;51.168;4.154;2022-07-19T07:47:19;8.50;;;3.05;;
18681;SDS011;9471;51.168;4.154;2022-07-19T07:49:46;10.77;;;3.10;;
18681;SDS011;9471;51.168;4.154;2022-07-19T07:52:15;8.93;;;2.60;;
18681;SDS011;9471;51.168;4.154;2022-07-19T07:54:42;9.05;;;2.75;;
18681;SDS011;9471;51.168;4.154;2022-07-19T07:57:15;8.88;;;2.60;;
18681;SDS011;9471;51.168;4.154;2022-07-19T07:59:42;14.60;;;2.67;;
18681;SDS011;9471;51.168;4.154;2022-07-19T08:02:09;9.30;;;2.80;;
18681;SDS011;9471;51.168;4.154;2022-07-19T08:04:36;7.70;;;2.75;;
18681;SDS011;9471;51.168;4.154;2022-07-19T08:07:03;9.32;;;3.05;;
18681;SDS011;9471;51.168;4.154;2022-07-19T08:09:30;7.85;;;2.53;;
18681;SDS011;9471;51.168;4.154;2022-07-19T08:11:57;9.60;;;2.97;;
18681;SDS011;9471;51.168;4.154;2022-07-19T08:14:25;9.90;;;3.10;;
18681;SDS011;9471;51.168;4.154;2022-07-19T08:16:52;10.07;;;2.92;;
18681;SDS011;9471;51.168;4.154;2022-07-19T08:19:19;10.07;;;2.80;;
18681;SDS011;9471;51.168;4.154;2022-07-19T08:21:46;14.48;;;2.85;;
18681;SDS011;9471;51.168;4.154;2022-07-19T08:24:13;8.65;;;2.83;;
18681;SDS011;9471;51.168;4.154;2022-07-19T08:26:40;11.23;;;3.55;;
18681;SDS011;9471;51.168;4.154;2022-07-19T08:29:07;10.90;;;2.88;;
18681;SDS011;9471;51.168;4.154;2022-07-19T08:31:35;7.43;;;3.13;;
18681;SDS011;9471;51.168;4.154;2022-07-19T08:34:03;9.00;;;2.80;;
18681;SDS011;9471;51.168;4.154;2022-07-19T08:36:30;14.43;;;2.92;;
18681;SDS011;9471;51.168;4.154;2022-07-19T08:38:57;10.88;;;3.00;;
18681;SDS011;9471;51.168;4.154;2022-07-19T08:41:24;9.23;;;2.60;;
18681;SDS011;9471;51.168;4.154;2022-07-19T08:43:51;10.82;;;3.55;;
18681;SDS011;9471;51.168;4.154;2022-07-19T08:46:18;10.73;;;3.03;;
18681;SDS011;9471;51.168;4.154;2022-07-19T08:48:47;10.77;;;3.50;;
18681;SDS011;9471;51.168;4.154;2022-07-19T08:51:17;9.13;;;3.00;;
18681;SDS011;9471;51.168;4.154;2022-07-19T08:53:45;8.35;;;2.92;;
18681;SDS011;9471;51.168;4.154;2022-07-19T08:56:12;7.90;;;2.72;;
18681;SDS011;9471;51.168;4.154;2022-07-19T08:58:56;9.73;;;2.72;;
18681;SDS011;9471;51.168;4.154;2022-07-19T09:01:23;10.35;;;2.97;;
18681;SDS011;9471;51.168;4.154;2022-07-19T09:04:08;9.32;;;3.15;;
18681;SDS011;9471;51.168;4.154;2022-07-19T09:06:37;9.25;;;2.97;;
18681;SDS011;9471;51.168;4.154;2022-07-19T09:09:05;10.38;;;3.40;;
18681;SDS011;9471;51.168;4.154;2022-07-19T09:11:33;9.38;;;3.30;;
18681;SDS011;9471;51.168;4.154;2022-07-19T09:14:04;10.40;;;2.85;;
18681;SDS011;9471;51.168;4.154;2022-07-19T09:16:47;10.10;;;2.95;;
18681;SDS011;9471;51.168;4.154;2022-07-19T09:19:24;13.38;;;3.25;;
18681;SDS011;9471;51.168;4.154;2022-07-19T09:21:56;12.80;;;3.05;;
18681;SDS011;9471;51.168;4.154;2022-07-19T09:24:25;12.48;;;3.50;;
18681;SDS011;9471;51.168;4.154;2022-07-19T09:26:56;15.95;;;3.40;;
18681;SDS011;9471;51.168;4.154;2022-07-19T09:29:24;15.00;;;3.50;;
18681;SDS011;9471;51.168;4.154;2022-07-19T09:32:03;17.40;;;6.03;;
18681;SDS011;9471;51.168;4.154;2022-07-19T09:34:37;14.55;;;3.65;;
18681;SDS011;9471;51.168;4.154;2022-07-19T09:37:09;8.40;;;3.00;;
18681;SDS011;9471;51.168;4.154;2022-07-19T09:39:44;10.15;;;3.00;;
18681;SDS011;9471;51.168;4.154;2022-07-19T09:42:13;15.27;;;3.20;;
18681;SDS011;9471;51.168;4.154;2022-07-19T09:44:42;15.02;;;3.22;;
18681;SDS011;9471;51.168;4.154;2022-07-19T09:47:09;12.52;;;3.10;;
18681;SDS011;9471;51.168;4.154;2022-07-19T09:49:38;11.38;;;3.22;;
18681;SDS011;9471;51.168;4.154;2022-07-19T09:52:06;12.43;;;3.30;;
18681;SDS011;9471;51.168;4.154;2022-07-19T09:54:35;12.27;;;3.20;;
18681;SDS011;9471;51.168;4.154;2022-07-19T09:57:06;14.57;;;3.42;;
18681;SDS011;9471;51.168;4.154;2022-07-19T09:59:35;13.25;;;3.30;;
18681;SDS011;9471;51.168;4.154;2022-07-19T10:02:11;11.88;;;3.20;;
18681;SDS011;9471;51.168;4.154;2022-07-19T10:04:40;11.55;;;2.85;;
18681;SDS011;9471;51.168;4.154;2022-07-19T10:07:09;11.48;;;2.85;;
18681;SDS011;9471;51.168;4.154;2022-07-19T10:09:38;12.07;;;3.03;;
18681;SDS011;9471;51.168;4.154;2022-07-19T10:12:06;13.07;;;3.22;;
18681;SDS011;9471;51.168;4.154;2022-07-19T10:14:33;11.35;;;2.85;;
18681;SDS011;9471;51.168;4.154;2022-07-19T10:17:21;9.13;;;2.90;;
18681;SDS011;9471;51.168;4.154;2022-07-19T10:19:54;10.55;;;3.17;;
18681;SDS011;9471;51.168;4.154;2022-07-19T10:22:22;10.95;;;2.63;;
18681;SDS011;9471;51.168;4.154;2022-07-19T10:24:51;10.15;;;3.08;;
18681;SDS011;9471;51.168;4.154;2022-07-19T10:27:37;9.80;;;3.15;;
18681;SDS011;9471;51.168;4.154;2022-07-19T10:30:23;10.45;;;4.78;;
18681;SDS011;9471;51.168;4.154;2022-07-19T10:32:52;10.20;;;2.90;;
18681;SDS011;9471;51.168;4.154;2022-07-19T10:35:25;8.25;;;2.83;;
18681;SDS011;9471;51.168;4.154;2022-07-19T10:38:07;10.48;;;2.95;;
18681;SDS011;9471;51.168;4.154;2022-07-19T10:40:39;14.05;;;3.35;;
18681;SDS011;9471;51.168;4.154;2022-07-19T10:43:09;13.98;;;2.75;;
18681;SDS011;9471;51.168;4.154;2022-07-19T10:45:37;10.98;;;2.97;;
18681;SDS011;9471;51.168;4.154;2022-07-19T10:48:07;8.90;;;2.95;;
18681;SDS011;9471;51.168;4.154;2022-07-19T10:50:50;10.52;;;2.55;;
18681;SDS011;9471;51.168;4.154;2022-07-19T10:56:20;10.60;;;3.17;;
18681;SDS011;9471;51.168;4.154;2022-07-19T13:12:29;8.27;;;2.90;;
18681;SDS011;9471;51.168;4.154;2022-07-19T13:14:56;13.52;;;3.30;;
18681;SDS011;9471;51.168;4.154;2022-07-19T13:17:23;13.20;;;3.15;;
18681;SDS011;9471;51.168;4.154;2022-07-19T13:19:50;9.15;;;3.33;;
18681;SDS011;9471;51.168;4.154;2022-07-19T13:22:17;10.30;;;2.90;;
18681;SDS011;9471;51.168;4.154;2022-07-19T13:24:44;14.57;;;3.30;;
18681;SDS011;9471;51.168;4.154;2022-07-19T13:27:11;9.60;;;2.97;;
18681;SDS011;9471;51.168;4.154;2022-07-19T13:29:42;8.90;;;3.17;;
18681;SDS011;9471;51.168;4.154;2022-07-19T13:32:09;10.73;;;3.20;;
18681;SDS011;9471;51.168;4.154;2022-07-19T13:34:37;12.13;;;3.47;;
18681;SDS011;9471;51.168;4.154;2022-07-19T13:37:04;9.88;;;3.15;;
18681;SDS011;9471;51.168;4.154;2022-07-19T13:39:31;12.55;;;3.33;;
18681;SDS011;9471;51.168;4.154;2022-07-19T13:41:58;11.00;;;3.55;;
18681;SDS011;9471;51.168;4.154;2022-07-19T13:44:25;9.88;;;3.63;;
18681;SDS011;9471;51.168;4.154;2022-07-19T13:46:54;12.15;;;3.50;;
18681;SDS011;9471;51.168;4.154;2022-07-19T13:49:23;10.35;;;4.75;;
18681;SDS011;9471;51.168;4.154;2022-07-19T13:51:50;9.77;;;3.47;;
18681;SDS011;9471;51.168;4.154;2022-07-19T13:54:17;16.65;;;4.20;;
18681;SDS011;9471;51.168;4.154;2022-07-19T13:56:44;11.57;;;3.17;;
18681;SDS011;9471;51.168;4.154;2022-07-19T13:59:11;10.27;;;3.05;;
18681;SDS011;9471;51.168;4.154;2022-07-19T14:01:38;10.57;;;3.33;;
18681;SDS011;9471;51.168;4.154;2022-07-19T14:04:07;9.65;;;3.30;;
18681;SDS011;9471;51.168;4.154;2022-07-19T14:06:33;8.15;;;3.28;;
18681;SDS011;9471;51.168;4.154;2022-07-19T14:09:00;9.77;;;3.30;;
18681;SDS011;9471;51.168;4.154;2022-07-19T14:11:27;10.48;;;3.22;;
18681;SDS011;9471;51.168;4.154;2022-07-19T14:13:55;8.63;;;3.53;;
18681;SDS011;9471;51.168;4.154;2022-07-19T14:16:22;11.20;;;3.60;;
18681;SDS011;9471;51.168;4.154;2022-07-19T14:18:49;13.38;;;3.92;;
18681;SDS011;9471;51.168;4.154;2022-07-19T14:21:17;15.10;;;4.30;;
18681;SDS011;9471;51.168;4.154;2022-07-19T14:23:44;11.52;;;3.83;;
18681;SDS011;9471;51.168;4.154;2022-07-19T14:26:11;13.80;;;4.32;;
18681;SDS011;9471;51.168;4.154;2022-07-19T14:28:38;13.50;;;4.38;;
18681;SDS011;9471;51.168;4.154;2022-07-19T14:31:05;10.25;;;3.90;;
18681;SDS011;9471;51.168;4.154;2022-07-19T14:33:32;11.30;;;4.05;;
18681;SDS011;9471;51.168;4.154;2022-07-19T14:35:59;9.25;;;3.90;;
18681;SDS011;9471;51.168;4.154;2022-07-19T14:38:28;8.43;;;3.70;;
18681;SDS011;9471;51.168;4.154;2022-07-19T14:40:54;11.18;;;3.83;;
18681;SDS011;9471;51.168;4.154;2022-07-19T14:43:22;13.63;;;3.75;;
18681;SDS011;9471;51.168;4.154;2022-07-19T14:45:49;10.90;;;3.88;;
18681;SDS011;9471;51.168;4.154;2022-07-19T14:48:17;10.13;;;3.28;;
18681;SDS011;9471;51.168;4.154;2022-07-19T14:50:43;13.65;;;3.20;;
18681;SDS011;9471;51.168;4.154;2022-07-19T14:53:11;7.78;;;2.90;;
18681;SDS011;9471;51.168;4.154;2022-07-19T14:55:39;9.93;;;2.50;;
18681;SDS011;9471;51.168;4.154;2022-07-19T14:58:06;8.73;;;2.40;;
18681;SDS011;9471;51.168;4.154;2022-07-19T15:00:33;8.90;;;3.17;;
18681;SDS011;9471;51.168;4.154;2022-07-19T15:03:00;7.78;;;2.90;;
18681;SDS011;9471;51.168;4.154;2022-07-19T15:05:27;7.45;;;2.92;;
18681;SDS011;9471;51.168;4.154;2022-07-19T15:07:54;6.82;;;2.45;;
18681;SDS011;9471;51.168;4.154;2022-07-19T15:10:21;10.02;;;2.92;;
18681;SDS011;9471;51.168;4.154;2022-07-19T15:12:50;8.57;;;2.58;;
18681;SDS011;9471;51.168;4.154;2022-07-19T15:15:17;7.95;;;2.53;;
18681;SDS011;9471;51.168;4.154;2022-07-19T15:17:44;6.57;;;2.60;;
18681;SDS011;9471;51.168;4.154;2022-07-19T15:20:11;13.25;;;3.00;;
18681;SDS011;9471;51.168;4.154;2022-07-19T15:22:38;11.30;;;2.53;;
18681;SDS011;9471;51.168;4.154;2022-07-19T15:25:05;11.30;;;2.30;;
18681;SDS011;9471;51.168;4.154;2022-07-19T15:27:33;8.48;;;2.38;;
18681;SDS011;9471;51.168;4.154;2022-07-19T15:30:02;8.30;;;2.38;;
18681;SDS011;9471;51.168;4.154;2022-07-19T15:32:29;7.32;;;2.20;;
18681;SDS011;9471;51.168;4.154;2022-07-19T15:34:57;7.25;;;2.30;;
18681;SDS011;9471;51.168;4.154;2022-07-19T15:37:23;9.40;;;2.63;;
18681;SDS011;9471;51.168;4.154;2022-07-19T15:39:50;10.05;;;2.35;;
18681;SDS011;9471;51.168;4.154;2022-07-19T15:42:18;6.20;;;2.00;;
18681;SDS011;9471;51.168;4.154;2022-07-19T15:44:44;12.57;;;2.35;;
18681;SDS011;9471;51.168;4.154;2022-07-19T15:47:13;8.52;;;2.17;;
18681;SDS011;9471;51.168;4.154;2022-07-19T15:49:40;9.68;;;2.30;;
18681;SDS011;9471;51.168;4.154;2022-07-19T15:52:07;8.60;;;2.22;;
18681;SDS011;9471;51.168;4.154;2022-07-19T15:54:35;10.05;;;2.60;;
18681;SDS011;9471;51.168;4.154;2022-07-19T15:57:02;6.13;;;2.30;;
18681;SDS011;9471;51.168;4.154;2022-07-19T15:59:29;8.77;;;2.20;;
18681;SDS011;9471;51.168;4.154;2022-07-19T16:01:56;10.40;;;2.17;;
18681;SDS011;9471;51.168;4.154;2022-07-19T16:04:25;12.88;;;4.93;;
18681;SDS011;9471;51.168;4.154;2022-07-19T16:06:53;4.22;;;1.90;;
18681;SDS011;9471;51.168;4.154;2022-07-19T16:09:19;5.30;;;1.77;;
18681;SDS011;9471;51.168;4.154;2022-07-19T16:11:47;12.18;;;2.17;;
18681;SDS011;9471;51.168;4.154;2022-07-19T16:14:13;6.70;;;1.92;;
18681;SDS011;9471;51.168;4.154;2022-07-19T16:16:41;5.93;;;1.92;;
18681;SDS011;9471;51.168;4.154;2022-07-19T16:19:08;8.60;;;2.15;;
18681;SDS011;9471;51.168;4.154;2022-07-19T16:21:36;11.13;;;2.10;;
18681;SDS011;9471;51.168;4.154;2022-07-19T16:24:03;6.10;;;2.05;;
18681;SDS011;9471;51.168;4.154;2022-07-19T16:26:30;7.07;;;2.25;;
18681;SDS011;9471;51.168;4.154;2022-07-19T16:28:58;8.43;;;1.90;;
18681;SDS011;9471;51.168;4.154;2022-07-19T16:31:25;6.20;;;1.77;;
18681;SDS011;9471;51.168;4.154;2022-07-19T16:33:52;7.38;;;1.95;;
18681;SDS011;9471;51.168;4.154;2022-07-19T16:36:19;7.10;;;1.95;;
18681;SDS011;9471;51.168;4.154;2022-07-19T16:38:47;5.20;;;1.90;;
18681;SDS011;9471;51.168;4.154;2022-07-19T16:41:15;8.13;;;2.22;;
18681;SDS011;9471;51.168;4.154;2022-07-19T16:43:42;8.48;;;2.42;;
18681;SDS011;9471;51.168;4.154;2022-07-19T16:46:09;9.07;;;2.20;;
18681;SDS011;9471;51.168;4.154;2022-07-19T16:48:36;9.60;;;2.20;;
18681;SDS011;9471;51.168;4.154;2022-07-19T16:51:04;9.88;;;1.92;;
18681;SDS011;9471;51.168;4.154;2022-07-19T16:53:31;6.43;;;1.92;;
18681;SDS011;9471;51.168;4.154;2022-07-19T16:55:59;7.00;;;1.77;;
18681;SDS011;9471;51.168;4.154;2022-07-19T16:58:26;10.48;;;2.10;;
18681;SDS011;9471;51.168;4.154;2022-07-19T17:00:53;5.97;;;1.80;;
18681;SDS011;9471;51.168;4.154;2022-07-19T17:03:20;9.52;;;2.00;;
18681;SDS011;9471;51.168;4.154;2022-07-19T17:05:47;10.82;;;2.00;;
18681;SDS011;9471;51.168;4.154;2022-07-19T17:08:14;7.20;;;1.98;;
18681;SDS011;9471;51.168;4.154;2022-07-19T17:10:41;5.80;;;1.70;;
18681;SDS011;9471;51.168;4.154;2022-07-19T17:13:10;9.48;;;1.83;;